EGTE/EXT METAR and TAF weather

Enter ICAO airport designator
Station Type Date Time Source
EGTE METAR 2018/01/24 06:50 UTC NOAA

EGTE 240650Z 21025G39KT 9999 -DZ BKN010 12/11 Q1004


Station Type Date Time Source
EGTE Decoded METAR 2018/01/24 06:50 UTC NOAA

Exeter Airport, United Kingdom (EGTE) 50-44N 003-25W
Jan 24, 2018 - 01:50 AM EST / 2018.01.24 0650 UTC
Wind: from the SSW (210 degrees) at 29 MPH (25 KT) gusting to 45 MPH (39 KT):0
Visibility: greater than 7 mile(s):0
Sky conditions: mostly cloudy
Weather: light drizzle
Temperature: 53 F (12 C)
Dew Point: 51 F (11 C)
Relative Humidity: 93%
Pressure (altimeter): 29.65 in. Hg (1004 hPa)
ob: EGTE 240650Z 21025G39KT 9999 -DZ BKN010 12/11 Q1004
cycle: 7

Station Type Date Time Source
EGTE TAF 2012/04/19 12:15 UTC NOAA

TAF TAF EGTE 191401Z 1912/1924 31016KT 9999 SCT030 SCT035 PROB40
TEMPO 1915/1918 7000 SHRA BKN014


Example: see airport list